Time;durP1;ratioP1;P1;durP2;ratioP2;P2;SDS_P1;SDS_P2;PMS_P1;PMS_P2;Temp;Humidity;BMP_temperature;BMP_pressure;BME280_temperature;BME280_humidity;BME280_pressure;Samples;Min_cycle;Max_cycle;Signal;HPM_P1;HPM_P2
2023/02/11 00:02:07;;;;;;;38.50;8.20;;;;;;;;;;5097311;28;20083;-69
2023/02/11 00:04:33;;;;;;;42.35;7.80;;;;;;;;;;5098426;28;20175;-69
2023/02/11 00:06:59;;;;;;;41.88;8.18;;;;;;;;;;5094885;28;20056;-70
2023/02/11 00:09:25;;;;;;;37.60;9.77;;;;;;;;;;5095510;28;20042;-69
2023/02/11 00:11:51;;;;;;;32.50;8.77;;;;;;;;;;5097478;28;20048;-69
2023/02/11 00:14:17;;;;;;;26.35;7.75;;;;;;;;;;5096076;28;20552;-70
2023/02/11 00:16:43;;;;;;;35.97;8.32;;;;;;;;;;5098206;28;20518;-70
2023/02/11 00:19:10;;;;;;;45.75;9.18;;;;;;;;;;5094286;28;20052;-69
2023/02/11 00:21:36;;;;;;;36.95;9.13;;;;;;;;;;5094133;28;20100;-70
2023/02/11 00:24:02;;;;;;;43.65;8.93;;;;;;;;;;5095237;28;20088;-69
2023/02/11 00:26:30;;;;;;;31.33;8.57;;;;;;;;;;5098488;28;20040;-70
2023/02/11 00:28:56;;;;;;;37.80;10.25;;;;;;;;;;5081427;28;20043;-70
2023/02/11 00:31:23;;;;;;;29.85;8.48;;;;;;;;;;5097821;28;20071;-69
2023/02/11 00:33:49;;;;;;;38.65;10.05;;;;;;;;;;5080143;28;20051;-70
2023/02/11 00:36:16;;;;;;;38.30;11.40;;;;;;;;;;5097151;28;20062;-70
2023/02/11 00:38:43;;;;;;;35.45;10.57;;;;;;;;;;5095707;28;20376;-70
2023/02/11 00:41:10;;;;;;;39.63;9.57;;;;;;;;;;5096818;28;20036;-70
2023/02/11 00:43:36;;;;;;;31.25;10.07;;;;;;;;;;5076863;28;20052;-70
2023/02/11 00:46:02;;;;;;;37.10;10.45;;;;;;;;;;5096305;28;20032;-70
2023/02/11 00:48:29;;;;;;;39.28;10.23;;;;;;;;;;5096252;28;20105;-69
2023/02/11 00:50:55;;;;;;;38.95;10.70;;;;;;;;;;5099165;28;20115;-69
2023/02/11 00:53:21;;;;;;;32.00;11.35;;;;;;;;;;5081904;28;20122;-70
2023/02/11 00:55:47;;;;;;;42.50;12.63;;;;;;;;;;5099982;28;20051;-70
2023/02/11 00:58:13;;;;;;;41.30;11.20;;;;;;;;;;5098993;28;20050;-70
2023/02/11 01:00:40;;;;;;;34.22;12.35;;;;;;;;;;5081747;28;20530;-70
2023/02/11 01:03:06;;;;;;;33.05;12.32;;;;;;;;;;5100736;28;20143;-70
2023/02/11 01:05:32;;;;;;;40.30;12.13;;;;;;;;;;5098963;28;20059;-70
2023/02/11 01:07:58;;;;;;;39.33;13.88;;;;;;;;;;5098434;28;20131;-69
2023/02/11 01:10:25;;;;;;;33.88;11.70;;;;;;;;;;5101387;28;20493;-69
2023/02/11 01:12:51;;;;;;;44.25;12.48;;;;;;;;;;5100423;28;20410;-69
2023/02/11 01:15:18;;;;;;;50.53;13.60;;;;;;;;;;5099451;28;20177;-70
2023/02/11 01:17:44;;;;;;;39.08;12.95;;;;;;;;;;5096715;28;20103;-69
2023/02/11 01:20:14;;;;;;;45.30;14.73;;;;;;;;;;5099243;28;20043;-70
2023/02/11 01:22:40;;;;;;;37.50;13.77;;;;;;;;;;5099580;28;20039;-69
2023/02/11 01:25:07;;;;;;;52.78;15.38;;;;;;;;;;5098998;28;20417;-70
2023/02/11 01:27:33;;;;;;;36.35;13.98;;;;;;;;;;5084108;28;20040;-70
2023/02/11 01:29:59;;;;;;;45.80;14.20;;;;;;;;;;5099681;28;20530;-69
2023/02/11 01:32:25;;;;;;;37.03;14.23;;;;;;;;;;5081964;28;20100;-69
2023/02/11 01:34:52;;;;;;;46.63;15.60;;;;;;;;;;5097326;28;20040;-69
2023/02/11 01:37:18;;;;;;;40.60;14.60;;;;;;;;;;5099423;28;20054;-70
2023/02/11 01:39:44;;;;;;;43.45;16.08;;;;;;;;;;5082945;27;20043;-68
2023/02/11 01:42:15;;;;;;;42.00;14.93;;;;;;;;;;5080335;28;20590;-70
2023/02/11 01:44:41;;;;;;;41.63;16.20;;;;;;;;;;5099539;27;20040;-70
2023/02/11 01:47:08;;;;;;;46.80;16.52;;;;;;;;;;5080431;27;20047;-69
2023/02/11 01:49:36;;;;;;;35.70;15.88;;;;;;;;;;5074802;27;20040;-70
2023/02/11 01:52:14;;;;;;;42.08;16.02;;;;;;;;;;5097923;27;20040;-70
2023/02/11 01:57:32;;;;;;;39.67;16.85;;;;;;;;;;5099518;27;20652;-70
2023/02/11 02:00:03;;;;;;;31.88;16.80;;;;;;;;;;5083840;27;20044;-70
2023/02/11 02:02:34;;;;;;;35.60;17.10;;;;;;;;;;5098409;28;20051;-70
2023/02/11 02:05:04;;;;;;;40.70;18.15;;;;;;;;;;5100796;28;20040;-70
2023/02/11 02:07:36;;;;;;;37.00;17.30;;;;;;;;;;5074442;28;20048;-70
2023/02/11 02:10:06;;;;;;;35.28;16.42;;;;;;;;;;5099404;28;20040;-69
2023/02/11 02:12:32;;;;;;;34.83;17.60;;;;;;;;;;5098979;27;20095;-69
2023/02/11 02:15:22;;;;;;;40.78;16.98;;;;;;;;;;5099248;27;20040;-70
2023/02/11 02:17:55;;;;;;;35.47;18.15;;;;;;;;;;5097734;28;20077;-70
2023/02/11 02:20:49;;;;;;;34.78;17.30;;;;;;;;;;5099033;28;20040;-70
2023/02/11 02:23:30;;;;;;;37.70;17.23;;;;;;;;;;5084732;28;20069;-70
2023/02/11 02:25:56;;;;;;;39.28;18.50;;;;;;;;;;5096873;28;20542;-70
2023/02/11 02:28:47;;;;;;;42.17;17.42;;;;;;;;;;5080838;28;20067;-69
2023/02/11 02:31:40;;;;;;;33.63;16.55;;;;;;;;;;5099503;27;20651;-70
2023/02/11 02:34:19;;;;;;;38.10;17.50;;;;;;;;;;5099525;27;20399;-69
2023/02/11 02:36:49;;;;;;;36.88;19.10;;;;;;;;;;5076904;28;20035;-70
2023/02/11 02:39:20;;;;;;;40.47;18.27;;;;;;;;;;5083398;28;20043;-69
2023/02/11 02:41:47;;;;;;;37.25;18.55;;;;;;;;;;5078250;28;20101;-70
2023/02/11 02:44:13;;;;;;;42.03;19.05;;;;;;;;;;5076799;28;20052;-70
2023/02/11 02:46:39;;;;;;;40.50;18.98;;;;;;;;;;5080097;28;20187;-70
2023/02/11 02:49:06;;;;;;;40.28;18.98;;;;;;;;;;5078902;28;20047;-70
2023/02/11 02:51:42;;;;;;;37.78;18.73;;;;;;;;;;5082172;28;20043;-70
2023/02/11 02:54:18;;;;;;;39.88;18.25;;;;;;;;;;5082089;28;20050;-70
2023/02/11 02:56:54;;;;;;;39.85;18.02;;;;;;;;;;5075171;28;20040;-70
2023/02/11 02:59:29;;;;;;;43.55;19.45;;;;;;;;;;5078628;28;20051;-70
2023/02/11 03:01:55;;;;;;;37.63;17.50;;;;;;;;;;5075503;28;20040;-70
2023/02/11 03:04:26;;;;;;;43.33;20.33;;;;;;;;;;5075389;28;20461;-70
2023/02/11 03:06:52;;;;;;;38.17;18.92;;;;;;;;;;5074787;28;20048;-71
2023/02/11 03:09:25;;;;;;;38.28;19.08;;;;;;;;;;5075643;28;20035;-70
2023/02/11 03:11:51;;;;;;;38.53;19.10;;;;;;;;;;5079310;28;20117;-70
2023/02/11 03:14:18;;;;;;;34.13;20.30;;;;;;;;;;5080409;28;20113;-70
2023/02/11 03:16:46;;;;;;;39.47;18.08;;;;;;;;;;5082625;28;21984;-70
2023/02/11 03:19:13;;;;;;;38.45;18.88;;;;;;;;;;5079410;28;20124;-70
2023/02/11 03:21:41;;;;;;;36.25;20.15;;;;;;;;;;5075186;28;20143;-70
2023/02/11 03:24:09;;;;;;;37.92;17.75;;;;;;;;;;5076122;28;20051;-70
2023/02/11 03:26:42;;;;;;;40.53;20.30;;;;;;;;;;5076258;28;20040;-70
2023/02/11 03:29:15;;;;;;;40.95;19.55;;;;;;;;;;5076471;28;20551;-70
2023/02/11 03:31:52;;;;;;;51.38;20.02;;;;;;;;;;5076585;28;20124;-70
2023/02/11 03:34:23;;;;;;;40.95;21.23;;;;;;;;;;5074432;28;20420;-70
2023/02/11 03:36:51;;;;;;;34.33;18.42;;;;;;;;;;5076675;28;20044;-70
2023/02/11 03:39:20;;;;;;;52.03;21.42;;;;;;;;;;5076779;28;20040;-70
2023/02/11 03:41:48;;;;;;;42.10;20.58;;;;;;;;;;5093617;28;20046;-70
2023/02/11 03:44:15;;;;;;;36.42;17.90;;;;;;;;;;5098089;28;20085;-70
2023/02/11 03:46:42;;;;;;;43.65;19.17;;;;;;;;;;5098382;28;20031;-70
2023/02/11 03:49:11;;;;;;;43.75;20.50;;;;;;;;;;5094654;28;20050;-70
2023/02/11 03:51:38;;;;;;;45.25;20.13;;;;;;;;;;5075242;28;20043;-70
2023/02/11 03:54:06;;;;;;;40.42;19.42;;;;;;;;;;5096673;28;20063;-70
2023/02/11 03:56:34;;;;;;;40.10;19.83;;;;;;;;;;5078232;28;20052;-70
2023/02/11 03:59:00;;;;;;;40.13;19.77;;;;;;;;;;5097779;28;20043;-70
2023/02/11 04:01:27;;;;;;;34.67;17.90;;;;;;;;;;5098721;28;20036;-70
2023/02/11 04:03:53;;;;;;;31.38;17.70;;;;;;;;;;5080006;28;20040;-70
2023/02/11 04:06:19;;;;;;;42.88;19.65;;;;;;;;;;5095758;28;20065;-70
2023/02/11 04:08:45;;;;;;;36.92;19.00;;;;;;;;;;5077706;28;20480;-70
2023/02/11 04:11:11;;;;;;;35.33;17.38;;;;;;;;;;5095941;28;20398;-70
2023/02/11 04:13:37;;;;;;;38.65;18.40;;;;;;;;;;5097345;28;20051;-70
2023/02/11 04:16:03;;;;;;;36.58;18.83;;;;;;;;;;5096214;28;20061;-70
2023/02/11 04:18:30;;;;;;;39.88;19.85;;;;;;;;;;5096351;28;20089;-70
2023/02/11 04:20:56;;;;;;;37.60;18.77;;;;;;;;;;5098163;28;20119;-70
2023/02/11 04:23:22;;;;;;;36.72;18.60;;;;;;;;;;5076960;28;20047;-71
2023/02/11 04:25:48;;;;;;;44.40;19.23;;;;;;;;;;5103115;28;20078;-68
2023/02/11 04:28:15;;;;;;;33.97;17.92;;;;;;;;;;5081158;28;20518;-69
2023/02/11 04:30:41;;;;;;;38.30;19.30;;;;;;;;;;5100201;28;20360;-69
2023/02/11 04:33:07;;;;;;;40.20;17.65;;;;;;;;;;5101009;28;20040;-69
2023/02/11 04:35:33;;;;;;;38.45;17.73;;;;;;;;;;5100111;28;20387;-69
2023/02/11 04:37:59;;;;;;;32.30;15.77;;;;;;;;;;5101206;28;20593;-69
2023/02/11 04:40:25;;;;;;;38.22;18.88;;;;;;;;;;5080387;28;20581;-68
2023/02/11 04:42:52;;;;;;;34.95;17.40;;;;;;;;;;5077785;28;20056;-69
2023/02/11 04:45:18;;;;;;;37.75;17.95;;;;;;;;;;5078544;28;20434;-69
2023/02/11 04:47:44;;;;;;;31.38;18.50;;;;;;;;;;5080978;28;20044;-69
2023/02/11 04:50:10;;;;;;;35.78;17.70;;;;;;;;;;5078163;28;20063;-69
2023/02/11 04:52:36;;;;;;;40.15;18.58;;;;;;;;;;5079613;28;20085;-69
2023/02/11 04:55:02;;;;;;;34.97;16.40;;;;;;;;;;5081826;28;20114;-69
2023/02/11 04:57:28;;;;;;;31.13;15.52;;;;;;;;;;5079185;28;20094;-69
2023/02/11 04:59:55;;;;;;;34.92;14.57;;;;;;;;;;5080086;28;20048;-69
2023/02/11 05:02:21;;;;;;;35.25;15.30;;;;;;;;;;5081902;28;20047;-69
2023/02/11 05:04:47;;;;;;;29.10;15.63;;;;;;;;;;5080184;28;20040;-69
2023/02/11 05:07:13;;;;;;;30.45;15.50;;;;;;;;;;5079653;28;20138;-69
2023/02/11 05:09:39;;;;;;;33.45;15.63;;;;;;;;;;5080846;28;20040;-69
2023/02/11 05:12:05;;;;;;;33.40;15.48;;;;;;;;;;5079117;28;20066;-69
2023/02/11 05:14:32;;;;;;;31.08;15.45;;;;;;;;;;5078861;28;20044;-69
2023/02/11 05:16:58;;;;;;;35.80;15.85;;;;;;;;;;5078433;28;20455;-69
2023/02/11 05:19:24;;;;;;;31.60;16.17;;;;;;;;;;5076734;28;20076;-69
2023/02/11 05:21:52;;;;;;;33.40;15.60;;;;;;;;;;5076573;28;20040;-69
2023/02/11 05:24:18;;;;;;;36.58;17.20;;;;;;;;;;5075594;28;20139;-69
2023/02/11 05:26:44;;;;;;;34.00;15.50;;;;;;;;;;5076419;28;20349;-69
2023/02/11 05:29:10;;;;;;;34.67;16.42;;;;;;;;;;5079502;28;20054;-70
2023/02/11 05:31:37;;;;;;;33.97;16.77;;;;;;;;;;5080602;28;20067;-69
2023/02/11 05:34:03;;;;;;;34.75;17.10;;;;;;;;;;5077493;28;20127;-69
2023/02/11 05:36:29;;;;;;;34.75;16.70;;;;;;;;;;5078065;28;20056;-69
2023/02/11 05:38:55;;;;;;;32.17;16.67;;;;;;;;;;5079601;28;20123;-69
2023/02/11 05:41:21;;;;;;;30.92;16.65;;;;;;;;;;5076698;28;20067;-69
2023/02/11 05:43:49;;;;;;;37.15;16.63;;;;;;;;;;5078457;28;20062;-69
2023/02/11 05:46:16;;;;;;;36.28;16.17;;;;;;;;;;5079387;28;20043;-69
2023/02/11 05:48:42;;;;;;;30.65;15.60;;;;;;;;;;5077302;28;20458;-69
2023/02/11 05:51:09;;;;;;;29.20;14.85;;;;;;;;;;5078176;28;20040;-69
2023/02/11 05:53:35;;;;;;;40.78;17.50;;;;;;;;;;5079403;28;20043;-69
2023/02/11 05:56:01;;;;;;;38.88;17.00;;;;;;;;;;5082522;28;21807;-69
2023/02/11 05:58:28;;;;;;;31.92;17.20;;;;;;;;;;5079401;28;20042;-69
2023/02/11 06:00:54;;;;;;;33.88;17.85;;;;;;;;;;5078687;28;20164;-69
2023/02/11 06:03:20;;;;;;;31.88;16.90;;;;;;;;;;5078814;28;20348;-69
2023/02/11 06:05:46;;;;;;;29.50;16.50;;;;;;;;;;5078817;28;20039;-69
2023/02/11 06:08:12;;;;;;;35.83;17.58;;;;;;;;;;5077058;28;20097;-69
2023/02/11 06:10:41;;;;;;;28.98;16.92;;;;;;;;;;5079812;28;20391;-69
2023/02/11 06:13:08;;;;;;;35.55;19.23;;;;;;;;;;5079579;28;20122;-69
2023/02/11 06:15:34;;;;;;;33.78;17.83;;;;;;;;;;5075899;28;20481;-69
2023/02/11 06:18:00;;;;;;;35.83;17.20;;;;;;;;;;5078019;28;21633;-69
2023/02/11 06:20:26;;;;;;;42.45;18.88;;;;;;;;;;5079175;28;20128;-69
2023/02/11 06:22:52;;;;;;;41.40;18.45;;;;;;;;;;5077171;28;20204;-69
2023/02/11 06:25:18;;;;;;;38.00;17.40;;;;;;;;;;5078368;28;20188;-69
2023/02/11 06:27:44;;;;;;;33.97;17.67;;;;;;;;;;5078163;28;20166;-69
2023/02/11 06:30:11;;;;;;;32.65;18.08;;;;;;;;;;5076036;28;20044;-69
2023/02/11 06:32:37;;;;;;;35.53;17.95;;;;;;;;;;5079396;28;20139;-69
2023/02/11 06:35:03;;;;;;;35.35;18.52;;;;;;;;;;5078222;28;20044;-69
2023/02/11 06:37:29;;;;;;;44.05;18.98;;;;;;;;;;5077462;28;20044;-69
2023/02/11 06:39:55;;;;;;;39.30;17.88;;;;;;;;;;5080727;28;20123;-69
2023/02/11 06:42:22;;;;;;;41.30;18.33;;;;;;;;;;5101588;28;20047;-69
2023/02/11 06:44:48;;;;;;;40.13;18.30;;;;;;;;;;5093911;28;20147;-69
2023/02/11 06:47:14;;;;;;;33.17;18.10;;;;;;;;;;5093325;28;20589;-69
2023/02/11 06:49:40;;;;;;;31.52;17.38;;;;;;;;;;5096928;28;20061;-69
2023/02/11 06:52:06;;;;;;;43.08;16.58;;;;;;;;;;5096961;28;20047;-69
2023/02/11 06:54:32;;;;;;;33.30;17.30;;;;;;;;;;5099539;28;20044;-69
2023/02/11 06:56:58;;;;;;;34.63;17.67;;;;;;;;;;5090797;28;20051;-69
2023/02/11 06:59:25;;;;;;;33.78;18.83;;;;;;;;;;5094209;28;20160;-69
2023/02/11 07:01:51;;;;;;;43.22;19.10;;;;;;;;;;5076089;28;20048;-69
2023/02/11 07:04:18;;;;;;;33.58;17.00;;;;;;;;;;5075087;28;20051;-70
2023/02/11 07:06:44;;;;;;;33.78;16.20;;;;;;;;;;5095698;28;20039;-69
2023/02/11 07:09:10;;;;;;;41.63;18.27;;;;;;;;;;5099884;28;20067;-69
2023/02/11 07:11:36;;;;;;;34.15;17.45;;;;;;;;;;5100872;28;21180;-69
2023/02/11 07:14:04;;;;;;;37.60;17.25;;;;;;;;;;5098935;28;20096;-70
2023/02/11 07:16:31;;;;;;;30.92;16.63;;;;;;;;;;5076904;28;20040;-68
2023/02/11 07:18:57;;;;;;;37.55;17.58;;;;;;;;;;5078760;28;20410;-70
2023/02/11 07:21:23;;;;;;;38.72;16.33;;;;;;;;;;5104566;28;20039;-70
2023/02/11 07:23:49;;;;;;;31.65;15.55;;;;;;;;;;5095465;28;20071;-70
2023/02/11 07:26:18;;;;;;;33.63;17.85;;;;;;;;;;5081272;28;20036;-70
2023/02/11 07:28:44;;;;;;;38.47;16.45;;;;;;;;;;5102979;28;20036;-70
2023/02/11 07:31:11;;;;;;;40.30;17.77;;;;;;;;;;5101473;28;20088;-69
2023/02/11 07:33:38;;;;;;;40.92;15.95;;;;;;;;;;5095132;28;20032;-70
2023/02/11 07:36:05;;;;;;;36.30;17.42;;;;;;;;;;5082284;28;20047;-70
2023/02/11 07:38:32;;;;;;;36.28;16.00;;;;;;;;;;5097133;28;20028;-70
2023/02/11 07:41:00;;;;;;;35.85;15.65;;;;;;;;;;5093846;28;20124;-70
2023/02/11 07:43:27;;;;;;;33.38;16.38;;;;;;;;;;5098915;28;20037;-69
2023/02/11 07:45:53;;;;;;;35.17;16.98;;;;;;;;;;5100073;28;20044;-70
2023/02/11 07:48:19;;;;;;;37.33;15.43;;;;;;;;;;5096563;28;20050;-70
2023/02/11 07:50:46;;;;;;;35.40;16.80;;;;;;;;;;5079583;28;20032;-70
2023/02/11 07:53:12;;;;;;;32.15;16.35;;;;;;;;;;5076692;28;20143;-70
2023/02/11 07:55:38;;;;;;;34.08;15.23;;;;;;;;;;5091392;28;20028;-71
2023/02/11 07:58:04;;;;;;;28.38;15.10;;;;;;;;;;5083710;28;20047;-71
2023/02/11 08:00:30;;;;;;;38.20;15.80;;;;;;;;;;5080833;28;20081;-71
2023/02/11 08:02:57;;;;;;;29.15;13.60;;;;;;;;;;5077664;28;20135;-71
2023/02/11 08:05:23;;;;;;;34.45;15.50;;;;;;;;;;5103302;28;20051;-70
2023/02/11 08:07:51;;;;;;;34.40;14.60;;;;;;;;;;5100455;28;20136;-70
2023/02/11 08:10:17;;;;;;;27.80;13.95;;;;;;;;;;5100230;28;20099;-71
2023/02/11 08:12:44;;;;;;;30.65;14.45;;;;;;;;;;5098752;28;20130;-69
2023/02/11 08:15:10;;;;;;;32.10;13.27;;;;;;;;;;5103328;28;20032;-69
2023/02/11 08:17:36;;;;;;;29.33;13.38;;;;;;;;;;5099504;28;20044;-69
2023/02/11 08:20:03;;;;;;;29.02;12.40;;;;;;;;;;5098007;28;20078;-69
2023/02/11 08:22:31;;;;;;;33.13;13.13;;;;;;;;;;5079275;28;20051;-69
2023/02/11 08:24:57;;;;;;;35.33;13.70;;;;;;;;;;5100357;28;20044;-70
2023/02/11 08:27:25;;;;;;;39.25;14.75;;;;;;;;;;5103279;28;20088;-72
2023/02/11 08:29:51;;;;;;;33.72;14.60;;;;;;;;;;5105066;28;20372;-69
2023/02/11 08:32:17;;;;;;;33.75;14.77;;;;;;;;;;5102650;28;20039;-69
2023/02/11 08:34:43;;;;;;;36.13;13.77;;;;;;;;;;5101526;28;20073;-69
2023/02/11 08:37:10;;;;;;;36.35;12.98;;;;;;;;;;5099406;28;20055;-69
2023/02/11 08:39:36;;;;;;;30.90;12.88;;;;;;;;;;5097700;28;20486;-69
2023/02/11 08:42:02;;;;;;;35.45;13.38;;;;;;;;;;5081369;28;20126;-69
2023/02/11 08:44:29;;;;;;;29.52;13.13;;;;;;;;;;5100172;28;20047;-69
2023/02/11 08:46:55;;;;;;;37.00;13.48;;;;;;;;;;5099957;28;20489;-68
2023/02/11 08:49:22;;;;;;;35.83;14.38;;;;;;;;;;5098754;28;20047;-68
2023/02/11 08:51:48;;;;;;;32.10;12.60;;;;;;;;;;5098385;28;20101;-69
2023/02/11 08:54:15;;;;;;;29.52;12.13;;;;;;;;;;5096895;28;20027;-69
2023/02/11 08:56:41;;;;;;;30.08;12.10;;;;;;;;;;5096886;28;20419;-69
2023/02/11 08:59:08;;;;;;;27.58;11.95;;;;;;;;;;5082785;28;20358;-69
2023/02/11 09:01:34;;;;;;;24.85;12.00;;;;;;;;;;5102760;28;20096;-69
2023/02/11 09:04:01;;;;;;;27.77;11.40;;;;;;;;;;5105066;28;20504;-68
2023/02/11 09:06:27;;;;;;;25.08;12.15;;;;;;;;;;5077174;28;20048;-69
2023/02/11 09:08:55;;;;;;;30.08;12.32;;;;;;;;;;5096250;28;20067;-68
2023/02/11 09:11:24;;;;;;;30.15;10.80;;;;;;;;;;5099526;28;20113;-68
2023/02/11 09:13:50;;;;;;;33.03;10.90;;;;;;;;;;5097607;28;20487;-68
2023/02/11 09:16:18;;;;;;;26.67;10.45;;;;;;;;;;5096491;28;20044;-68
2023/02/11 09:18:44;;;;;;;29.92;11.93;;;;;;;;;;5095875;28;20092;-68
2023/02/11 09:21:11;;;;;;;34.85;12.25;;;;;;;;;;5101436;28;20130;-67
2023/02/11 09:23:37;;;;;;;34.05;10.32;;;;;;;;;;5096871;28;21161;-69
2023/02/11 09:26:12;;;;;;;25.67;10.85;;;;;;;;;;5101159;28;20058;-69
2023/02/11 09:28:38;;;;;;;23.67;10.40;;;;;;;;;;5085167;28;20043;-69
2023/02/11 09:31:05;;;;;;;27.98;10.85;;;;;;;;;;5102611;28;20088;-69
2023/02/11 09:33:32;;;;;;;31.00;10.13;;;;;;;;;;5099235;28;20044;-69
2023/02/11 09:36:03;;;;;;;27.55;9.95;;;;;;;;;;5100938;28;20173;-69
2023/02/11 09:38:29;;;;;;;31.27;9.73;;;;;;;;;;5101822;28;20561;-69
2023/02/11 09:40:55;;;;;;;37.33;10.10;;;;;;;;;;5102875;28;20055;-69
2023/02/11 09:43:22;;;;;;;26.10;9.25;;;;;;;;;;5082765;28;20456;-69
2023/02/11 09:45:49;;;;;;;21.77;9.07;;;;;;;;;;5100117;28;20066;-69
2023/02/11 09:48:20;;;;;;;25.08;8.38;;;;;;;;;;5096390;28;20036;-69
2023/02/11 09:50:52;;;;;;;34.30;9.05;;;;;;;;;;5100092;28;20181;-69
2023/02/11 09:53:28;;;;;;;24.48;7.95;;;;;;;;;;5090390;28;20104;-69
2023/02/11 09:55:58;;;;;;;27.33;7.43;;;;;;;;;;5101286;28;20458;-69
2023/02/11 09:58:27;;;;;;;22.13;7.03;;;;;;;;;;5102423;28;20043;-69
2023/02/11 10:01:01;;;;;;;29.52;7.93;;;;;;;;;;5103185;28;20043;-69
2023/02/11 10:03:35;;;;;;;26.55;7.57;;;;;;;;;;5078826;28;20169;-69
2023/02/11 10:06:02;;;;;;;23.00;7.15;;;;;;;;;;5082190;28;20051;-69
2023/02/11 10:08:37;;;;;;;26.63;7.32;;;;;;;;;;5083418;28;20051;-69
2023/02/11 10:11:10;;;;;;;28.33;8.23;;;;;;;;;;5103362;28;20122;-69
2023/02/11 10:13:47;;;;;;;29.90;7.43;;;;;;;;;;5083825;28;20051;-69
2023/02/11 10:16:19;;;;;;;21.98;6.93;;;;;;;;;;5100414;28;20043;-69
2023/02/11 10:18:49;;;;;;;26.17;7.15;;;;;;;;;;5082141;28;20036;-69
2023/02/11 10:21:19;;;;;;;22.13;7.25;;;;;;;;;;5101913;28;20043;-69
2023/02/11 10:23:48;;;;;;;27.38;7.25;;;;;;;;;;5099919;28;20050;-69
2023/02/11 10:26:16;;;;;;;30.58;7.45;;;;;;;;;;5101595;28;20402;-69
2023/02/11 10:28:45;;;;;;;23.10;6.80;;;;;;;;;;5100891;28;20048;-69
2023/02/11 10:31:16;;;;;;;28.50;6.40;;;;;;;;;;5082560;28;21663;-69
2023/02/11 10:33:43;;;;;;;21.83;6.35;;;;;;;;;;5100397;28;20036;-69
2023/02/11 10:36:11;;;;;;;22.00;5.15;;;;;;;;;;5094134;28;20069;-69
2023/02/11 10:38:38;;;;;;;28.73;6.38;;;;;;;;;;5095624;28;20094;-69
2023/02/11 10:41:05;;;;;;;21.77;5.63;;;;;;;;;;5103620;28;20377;-70
2023/02/11 10:43:32;;;;;;;22.10;5.78;;;;;;;;;;5096539;28;20122;-70
2023/02/11 10:45:59;;;;;;;26.23;5.90;;;;;;;;;;5097427;28;20071;-70
2023/02/11 10:48:35;;;;;;;22.55;5.78;;;;;;;;;;5095152;28;20136;-69
2023/02/11 10:51:07;;;;;;;21.63;5.32;;;;;;;;;;5099641;28;20379;-70
2023/02/11 10:53:34;;;;;;;20.17;4.88;;;;;;;;;;5100181;28;20161;-70
2023/02/11 10:56:02;;;;;;;26.65;5.80;;;;;;;;;;5084162;28;20065;-70
2023/02/11 10:58:43;;;;;;;23.27;6.22;;;;;;;;;;5099466;28;20040;-70
2023/02/11 11:01:10;;;;;;;25.02;5.80;;;;;;;;;;5082229;28;20056;-70
2023/02/11 11:03:38;;;;;;;29.73;4.82;;;;;;;;;;5100378;28;20062;-69
2023/02/11 11:06:06;;;;;;;23.98;5.45;;;;;;;;;;5098038;28;20032;-69
2023/02/11 11:08:38;;;;;;;31.25;7.20;;;;;;;;;;5083483;28;20108;-69
2023/02/11 11:11:07;;;;;;;19.55;5.25;;;;;;;;;;5094823;28;20118;-69
2023/02/11 11:13:35;;;;;;;26.58;5.88;;;;;;;;;;5093767;28;20069;-69
2023/02/11 11:16:07;;;;;;;13.73;4.57;;;;;;;;;;5091755;28;20032;-69
2023/02/11 11:18:33;;;;;;;21.50;4.88;;;;;;;;;;5077328;28;20054;-69
2023/02/11 11:21:01;;;;;;;17.40;4.22;;;;;;;;;;5097382;28;20070;-69
2023/02/11 11:23:27;;;;;;;17.30;3.88;;;;;;;;;;5093354;28;20066;-69
2023/02/11 11:25:59;;;;;;;19.38;3.80;;;;;;;;;;5095056;28;20044;-70
2023/02/11 11:28:27;;;;;;;16.67;3.90;;;;;;;;;;5092556;28;20109;-70
2023/02/11 11:30:55;;;;;;;14.48;3.13;;;;;;;;;;5078371;28;20059;-70
2023/02/11 11:33:24;;;;;;;17.73;3.83;;;;;;;;;;5092802;28;20040;-69
2023/02/11 11:35:57;;;;;;;17.38;3.40;;;;;;;;;;5081062;28;20063;-70
2023/02/11 11:38:23;;;;;;;14.47;4.03;;;;;;;;;;5092197;28;20052;-68
2023/02/11 11:41:09;;;;;;;20.35;3.70;;;;;;;;;;5096702;28;20128;-68
2023/02/11 11:43:36;;;;;;;20.75;3.70;;;;;;;;;;5077824;28;20127;-68
2023/02/11 11:46:05;;;;;;;24.45;3.92;;;;;;;;;;5077563;28;20051;-68
2023/02/11 11:48:34;;;;;;;18.40;3.60;;;;;;;;;;5075779;28;20451;-68
2023/02/11 11:51:03;;;;;;;18.92;4.03;;;;;;;;;;5093107;28;20059;-69
2023/02/11 11:53:33;;;;;;;14.57;2.95;;;;;;;;;;5094401;28;20136;-69
2023/02/11 11:56:00;;;;;;;18.17;3.70;;;;;;;;;;5093318;28;20051;-69
2023/02/11 11:58:27;;;;;;;17.08;3.38;;;;;;;;;;5095062;28;20036;-69
2023/02/11 12:00:56;;;;;;;16.67;3.40;;;;;;;;;;5090104;28;20043;-69
2023/02/11 12:03:28;;;;;;;17.45;3.80;;;;;;;;;;5096828;28;20457;-69
2023/02/11 12:06:02;;;;;;;14.82;3.10;;;;;;;;;;5097113;28;20126;-69
2023/02/11 12:08:36;;;;;;;16.50;3.60;;;;;;;;;;5089294;28;20401;-69
2023/02/11 12:11:09;;;;;;;18.15;3.47;;;;;;;;;;5076029;28;20046;-69
2023/02/11 12:13:36;;;;;;;22.52;3.53;;;;;;;;;;5095394;28;20143;-69
2023/02/11 12:16:03;;;;;;;19.92;3.78;;;;;;;;;;5075093;28;20051;-69
2023/02/11 12:18:37;;;;;;;17.05;3.97;;;;;;;;;;5076725;28;20143;-69
2023/02/11 12:21:09;;;;;;;15.82;3.47;;;;;;;;;;5094920;28;20048;-68
2023/02/11 12:23:53;;;;;;;15.55;3.38;;;;;;;;;;5093755;28;20178;-68
2023/02/11 12:26:21;;;;;;;15.60;3.90;;;;;;;;;;5078154;28;20509;-68
2023/02/11 12:29:03;;;;;;;17.70;3.80;;;;;;;;;;5076877;28;20125;-68
2023/02/11 12:31:35;;;;;;;16.90;3.03;;;;;;;;;;5096257;28;20440;-68
2023/02/11 12:34:05;;;;;;;18.95;2.97;;;;;;;;;;5094841;28;20126;-68
2023/02/11 12:36:44;;;;;;;24.80;4.10;;;;;;;;;;5073078;28;20118;-68
2023/02/11 12:39:20;;;;;;;13.82;3.00;;;;;;;;;;5071811;28;20066;-68
2023/02/11 12:45:04;;;;;;;14.68;2.85;;;;;;;;;;5094823;28;20044;-68
2023/02/11 12:47:41;;;;;;;15.85;2.78;;;;;;;;;;5079864;28;20043;-68
2023/02/11 12:50:24;;;;;;;18.65;3.65;;;;;;;;;;5100302;28;20204;-68
2023/02/11 12:53:01;;;;;;;17.77;2.90;;;;;;;;;;5082213;28;20051;-68
2023/02/11 12:55:29;;;;;;;18.83;2.67;;;;;;;;;;5081055;28;20040;-68
2023/02/11 12:57:56;;;;;;;17.13;3.47;;;;;;;;;;5098286;28;20086;-68
2023/02/11 13:00:24;;;;;;;29.08;3.63;;;;;;;;;;5100052;28;20051;-68
2023/02/11 13:03:06;;;;;;;10.57;2.40;;;;;;;;;;5097668;28;20071;-67
2023/02/11 13:05:37;;;;;;;14.10;2.15;;;;;;;;;;5100677;28;20468;-67
2023/02/11 13:08:09;;;;;;;16.92;2.97;;;;;;;;;;5100821;28;20062;-68
2023/02/11 13:10:37;;;;;;;21.15;2.90;;;;;;;;;;5079417;28;20043;-68
2023/02/11 13:13:15;;;;;;;17.67;3.53;;;;;;;;;;5099865;28;21206;-68
2023/02/11 13:15:42;;;;;;;14.32;2.70;;;;;;;;;;5099428;28;20044;-68
2023/02/11 13:18:16;;;;;;;13.38;2.40;;;;;;;;;;5098671;28;20044;-68
2023/02/11 13:20:47;;;;;;;15.20;2.40;;;;;;;;;;5095005;28;20149;-68
2023/02/11 13:23:22;;;;;;;15.35;3.67;;;;;;;;;;5092561;28;20038;-68
2023/02/11 13:25:52;;;;;;;15.40;3.10;;;;;;;;;;5078593;28;20051;-69
2023/02/11 13:28:23;;;;;;;18.27;2.50;;;;;;;;;;5097839;28;20255;-69
2023/02/11 13:30:56;;;;;;;22.52;3.88;;;;;;;;;;5099538;28;20142;-68
2023/02/11 13:33:32;;;;;;;16.30;3.17;;;;;;;;;;5080540;28;20180;-68
2023/02/11 13:35:58;;;;;;;14.98;3.25;;;;;;;;;;5101953;28;20356;-69
2023/02/11 13:38:25;;;;;;;17.58;3.63;;;;;;;;;;5093718;28;20036;-69
2023/02/11 13:41:01;;;;;;;17.65;2.88;;;;;;;;;;5094358;28;20479;-68
2023/02/11 13:43:27;;;;;;;19.23;3.47;;;;;;;;;;5097234;28;20040;-67
2023/02/11 13:45:58;;;;;;;18.02;3.22;;;;;;;;;;5099065;28;20479;-67
2023/02/11 13:48:25;;;;;;;16.02;2.80;;;;;;;;;;5099484;28;20039;-66
2023/02/11 13:50:53;;;;;;;14.95;2.42;;;;;;;;;;5076347;28;20701;-67
2023/02/11 13:53:21;;;;;;;13.23;2.47;;;;;;;;;;5097679;28;20475;-67
2023/02/11 13:55:48;;;;;;;26.63;4.93;;;;;;;;;;5072613;28;20373;-67
2023/02/11 13:58:16;;;;;;;42.72;6.93;;;;;;;;;;5095075;28;20040;-67
2023/02/11 14:00:44;;;;;;;18.45;3.90;;;;;;;;;;5074059;28;20409;-67
2023/02/11 14:08:58;;;;;;;34.60;4.32;;;;;;;;;;5095256;28;20407;-68
2023/02/11 14:11:32;;;;;;;20.58;3.03;;;;;;;;;;5098364;28;20150;-67
2023/02/11 14:14:14;;;;;;;18.77;2.75;;;;;;;;;;5079671;28;20391;-73
2023/02/11 14:17:00;;;;;;;14.63;2.95;;;;;;;;;;5099526;28;20417;-67
2023/02/11 14:19:32;;;;;;;13.05;2.83;;;;;;;;;;5096539;28;20467;-68
2023/02/11 14:22:15;;;;;;;17.00;3.17;;;;;;;;;;5097231;28;20071;-67
2023/02/11 14:24:46;;;;;;;14.48;3.17;;;;;;;;;;5096764;28;20044;-67
2023/02/11 14:27:20;;;;;;;13.60;2.15;;;;;;;;;;5100300;28;20031;-68
2023/02/11 14:30:03;;;;;;;19.98;2.55;;;;;;;;;;5080849;28;20050;-68
2023/02/11 14:32:30;;;;;;;12.95;3.10;;;;;;;;;;5081405;28;20051;-68
2023/02/11 14:34:57;;;;;;;17.73;2.88;;;;;;;;;;5081669;28;20137;-68
2023/02/11 14:37:23;;;;;;;17.85;2.50;;;;;;;;;;5084076;28;20066;-68
2023/02/11 14:40:00;;;;;;;14.32;3.42;;;;;;;;;;5099915;28;20059;-68
2023/02/11 14:42:27;;;;;;;15.23;3.22;;;;;;;;;;5094035;28;20051;-68